sensor_id;sensor_type;location;lat;lon;timestamp;pressure;altitude;pressure_sealevel;temperature;humidity
41573;BME280;27286;47.870;19.006;2023-02-13T00:00:22;101422.63;;;-3.75;96.54
41573;BME280;27286;47.870;19.006;2023-02-13T00:02:48;101411.44;;;-3.78;96.97
41573;BME280;27286;47.870;19.006;2023-02-13T00:05:14;101410.56;;;-3.79;96.57
41573;BME280;27286;47.870;19.006;2023-02-13T00:07:39;101412.97;;;-3.82;97.30
41573;BME280;27286;47.870;19.006;2023-02-13T00:10:06;101403.53;;;-3.84;97.08
41573;BME280;27286;47.870;19.006;2023-02-13T00:12:31;101419.50;;;-3.87;97.34
41573;BME280;27286;47.870;19.006;2023-02-13T00:14:57;101411.72;;;-3.90;97.28
41573;BME280;27286;47.870;19.006;2023-02-13T00:17:23;101409.84;;;-3.94;97.82
41573;BME280;27286;47.870;19.006;2023-02-13T00:19:48;101407.00;;;-4.00;97.73
41573;BME280;27286;47.870;19.006;2023-02-13T00:22:14;101404.38;;;-4.02;98.06
41573;BME280;27286;47.870;19.006;2023-02-13T00:24:41;101406.75;;;-4.05;97.92
41573;BME280;27286;47.870;19.006;2023-02-13T00:27:06;101406.94;;;-4.02;98.31
41573;BME280;27286;47.870;19.006;2023-02-13T00:29:31;101405.34;;;-4.00;98.44
41573;BME280;27286;47.870;19.006;2023-02-13T00:31:57;101411.16;;;-4.02;98.57
41573;BME280;27286;47.870;19.006;2023-02-13T00:34:22;101405.19;;;-4.03;98.99
41573;BME280;27286;47.870;19.006;2023-02-13T00:36:48;101409.94;;;-4.09;98.85
41573;BME280;27286;47.870;19.006;2023-02-13T00:39:13;101407.13;;;-4.15;98.52
41573;BME280;27286;47.870;19.006;2023-02-13T00:41:38;101414.75;;;-4.15;98.48
41573;BME280;27286;47.870;19.006;2023-02-13T00:44:04;101423.81;;;-4.20;98.91
41573;BME280;27286;47.870;19.006;2023-02-13T00:46:31;101421.25;;;-4.20;98.53
41573;BME280;27286;47.870;19.006;2023-02-13T00:48:56;101419.38;;;-4.24;98.46
41573;BME280;27286;47.870;19.006;2023-02-13T00:51:21;101414.06;;;-4.29;98.77
41573;BME280;27286;47.870;19.006;2023-02-13T00:53:47;101418.34;;;-4.28;98.50
41573;BME280;27286;47.870;19.006;2023-02-13T00:56:12;101414.22;;;-4.26;98.90
41573;BME280;27286;47.870;19.006;2023-02-13T00:58:38;101416.91;;;-4.22;98.91
41573;BME280;27286;47.870;19.006;2023-02-13T01:01:04;101417.78;;;-4.22;99.75
41573;BME280;27286;47.870;19.006;2023-02-13T01:03:29;101413.41;;;-4.25;99.73
41573;BME280;27286;47.870;19.006;2023-02-13T01:05:56;101421.03;;;-4.25;100.00
41573;BME280;27286;47.870;19.006;2023-02-13T01:08:22;101415.88;;;-4.26;100.00
41573;BME280;27286;47.870;19.006;2023-02-13T01:10:48;101420.25;;;-4.24;100.00
41573;BME280;27286;47.870;19.006;2023-02-13T01:13:15;101415.88;;;-4.26;100.00
41573;BME280;27286;47.870;19.006;2023-02-13T01:15:42;101416.59;;;-4.29;100.00
41573;BME280;27286;47.870;19.006;2023-02-13T01:18:09;101419.81;;;-4.33;100.00
41573;BME280;27286;47.870;19.006;2023-02-13T01:20:36;101409.47;;;-4.36;100.00
41573;BME280;27286;47.870;19.006;2023-02-13T01:23:02;101410.25;;;-4.37;100.00
41573;BME280;27286;47.870;19.006;2023-02-13T01:25:27;101397.88;;;-4.47;100.00
41573;BME280;27286;47.870;19.006;2023-02-13T01:27:53;101405.59;;;-4.45;100.00
41573;BME280;27286;47.870;19.006;2023-02-13T01:30:18;101396.78;;;-4.52;100.00
41573;BME280;27286;47.870;19.006;2023-02-13T01:32:45;101405.22;;;-4.53;100.00
41573;BME280;27286;47.870;19.006;2023-02-13T01:35:12;101408.00;;;-4.65;99.59
41573;BME280;27286;47.870;19.006;2023-02-13T01:37:39;101407.78;;;-4.69;99.54
41573;BME280;27286;47.870;19.006;2023-02-13T01:40:06;101412.66;;;-4.72;99.75
41573;BME280;27286;47.870;19.006;2023-02-13T01:42:33;101407.66;;;-4.71;99.44
41573;BME280;27286;47.870;19.006;2023-02-13T01:45:19;101400.84;;;-4.72;99.41
41573;BME280;27286;47.870;19.006;2023-02-13T01:47:50;101404.25;;;-4.71;99.71
41573;BME280;27286;47.870;19.006;2023-02-13T01:53:13;101406.56;;;-4.60;99.88
41573;BME280;27286;47.870;19.006;2023-02-13T01:55:52;101403.44;;;-4.54;99.62
41573;BME280;27286;47.870;19.006;2023-02-13T01:58:23;101406.16;;;-4.51;99.86
41573;BME280;27286;47.870;19.006;2023-02-13T02:00:50;101402.09;;;-4.47;100.00
41573;BME280;27286;47.870;19.006;2023-02-13T02:03:24;101397.97;;;-4.45;100.00
41573;BME280;27286;47.870;19.006;2023-02-13T02:05:51;101389.25;;;-4.50;100.00
41573;BME280;27286;47.870;19.006;2023-02-13T02:08:20;101398.69;;;-4.48;100.00
41573;BME280;27286;47.870;19.006;2023-02-13T02:10:46;101390.84;;;-4.52;100.00
41573;BME280;27286;47.870;19.006;2023-02-13T02:13:18;101381.22;;;-4.58;100.00
41573;BME280;27286;47.870;19.006;2023-02-13T02:15:44;101383.47;;;-4.64;100.00
41573;BME280;27286;47.870;19.006;2023-02-13T02:18:17;101376.47;;;-4.68;100.00
41573;BME280;27286;47.870;19.006;2023-02-13T02:32:32;101371.72;;;-4.95;100.00
41573;BME280;27286;47.870;19.006;2023-02-13T02:35:32;101373.47;;;-4.94;100.00
41573;BME280;27286;47.870;19.006;2023-02-13T02:41:03;101368.38;;;-4.94;100.00
41573;BME280;27286;47.870;19.006;2023-02-13T02:43:53;101376.78;;;-4.95;100.00
41573;BME280;27286;47.870;19.006;2023-02-13T02:46:36;101360.38;;;-5.01;100.00
41573;BME280;27286;47.870;19.006;2023-02-13T02:49:12;101358.13;;;-5.11;100.00
41573;BME280;27286;47.870;19.006;2023-02-13T02:55:13;101364.38;;;-5.21;100.00
41573;BME280;27286;47.870;19.006;2023-02-13T02:57:44;101361.97;;;-5.20;100.00
41573;BME280;27286;47.870;19.006;2023-02-13T03:00:33;101368.06;;;-5.16;100.00
41573;BME280;27286;47.870;19.006;2023-02-13T03:03:19;101363.94;;;-5.14;100.00
41573;BME280;27286;47.870;19.006;2023-02-13T03:06:26;101367.03;;;-5.20;100.00
41573;BME280;27286;47.870;19.006;2023-02-13T03:09:00;101372.97;;;-5.19;100.00
41573;BME280;27286;47.870;19.006;2023-02-13T03:11:48;101374.66;;;-5.20;100.00
41573;BME280;27286;47.870;19.006;2023-02-13T03:14:34;101374.72;;;-5.18;100.00
41573;BME280;27286;47.870;19.006;2023-02-13T03:17:01;101375.34;;;-5.22;100.00
41573;BME280;27286;47.870;19.006;2023-02-13T03:20:09;101373.59;;;-5.23;100.00
41573;BME280;27286;47.870;19.006;2023-02-13T03:26:00;101375.97;;;-5.26;100.00
41573;BME280;27286;47.870;19.006;2023-02-13T03:29:02;101366.44;;;-5.30;100.00
41573;BME280;27286;47.870;19.006;2023-02-13T03:32:12;101370.59;;;-5.32;100.00
41573;BME280;27286;47.870;19.006;2023-02-13T03:34:49;101374.78;;;-5.33;100.00
41573;BME280;27286;47.870;19.006;2023-02-13T03:37:43;101368.03;;;-5.32;100.00
41573;BME280;27286;47.870;19.006;2023-02-13T03:40:27;101372.31;;;-5.31;100.00
41573;BME280;27286;47.870;19.006;2023-02-13T03:43:13;101366.44;;;-5.30;100.00
41573;BME280;27286;47.870;19.006;2023-02-13T03:45:44;101362.97;;;-5.32;100.00
41573;BME280;27286;47.870;19.006;2023-02-13T03:48:29;101367.97;;;-5.34;100.00
41573;BME280;27286;47.870;19.006;2023-02-13T03:51:20;101369.38;;;-5.39;100.00
41573;BME280;27286;47.870;19.006;2023-02-13T03:53:50;101368.31;;;-5.42;100.00
41573;BME280;27286;47.870;19.006;2023-02-13T03:56:20;101361.50;;;-5.43;100.00
41573;BME280;27286;47.870;19.006;2023-02-13T03:59:06;101366.13;;;-5.36;100.00
41573;BME280;27286;47.870;19.006;2023-02-13T04:01:47;101365.16;;;-5.38;100.00
41573;BME280;27286;47.870;19.006;2023-02-13T04:07:06;101353.69;;;-5.63;100.00
41573;BME280;27286;47.870;19.006;2023-02-13T04:09:37;101358.47;;;-5.69;100.00
41573;BME280;27286;47.870;19.006;2023-02-13T04:12:10;101365.53;;;-5.78;100.00
41573;BME280;27286;47.870;19.006;2023-02-13T04:14:47;101351.00;;;-5.97;100.00
41573;BME280;27286;47.870;19.006;2023-02-13T04:17:23;101359.00;;;-5.89;100.00
41573;BME280;27286;47.870;19.006;2023-02-13T04:19:51;101347.38;;;-5.86;100.00
41573;BME280;27286;47.870;19.006;2023-02-13T04:22:17;101354.59;;;-5.77;100.00
41573;BME280;27286;47.870;19.006;2023-02-13T04:24:43;101347.16;;;-5.74;100.00
41573;BME280;27286;47.870;19.006;2023-02-13T04:27:12;101353.19;;;-5.72;100.00
41573;BME280;27286;47.870;19.006;2023-02-13T04:29:39;101349.69;;;-5.74;100.00
41573;BME280;27286;47.870;19.006;2023-02-13T04:32:04;101343.91;;;-5.71;100.00
41573;BME280;27286;47.870;19.006;2023-02-13T04:34:30;101332.72;;;-5.75;100.00
41573;BME280;27286;47.870;19.006;2023-02-13T04:36:55;101340.50;;;-5.72;100.00
41573;BME280;27286;47.870;19.006;2023-02-13T04:39:20;101340.41;;;-5.73;100.00
41573;BME280;27286;47.870;19.006;2023-02-13T04:41:46;101341.28;;;-5.73;100.00
41573;BME280;27286;47.870;19.006;2023-02-13T04:44:11;101339.03;;;-5.68;100.00
41573;BME280;27286;47.870;19.006;2023-02-13T04:46:37;101346.44;;;-5.71;100.00
41573;BME280;27286;47.870;19.006;2023-02-13T04:49:02;101342.00;;;-5.76;100.00
41573;BME280;27286;47.870;19.006;2023-02-13T04:51:28;101340.56;;;-5.87;100.00
41573;BME280;27286;47.870;19.006;2023-02-13T04:53:53;101330.81;;;-5.95;100.00
41573;BME280;27286;47.870;19.006;2023-02-13T04:56:18;101339.03;;;-5.99;100.00
41573;BME280;27286;47.870;19.006;2023-02-13T04:58:44;101335.28;;;-6.06;100.00
41573;BME280;27286;47.870;19.006;2023-02-13T05:01:14;101341.13;;;-6.07;100.00
41573;BME280;27286;47.870;19.006;2023-02-13T05:03:40;101333.28;;;-6.12;100.00
41573;BME280;27286;47.870;19.006;2023-02-13T05:06:06;101332.31;;;-6.14;100.00
41573;BME280;27286;47.870;19.006;2023-02-13T05:08:33;101336.59;;;-6.13;100.00
41573;BME280;27286;47.870;19.006;2023-02-13T05:10:59;101328.84;;;-6.16;100.00
41573;BME280;27286;47.870;19.006;2023-02-13T05:13:24;101334.94;;;-6.12;100.00
41573;BME280;27286;47.870;19.006;2023-02-13T05:15:49;101333.38;;;-6.10;100.00
41573;BME280;27286;47.870;19.006;2023-02-13T05:18:17;101336.84;;;-6.08;100.00
41573;BME280;27286;47.870;19.006;2023-02-13T05:20:43;101346.28;;;-6.06;100.00
41573;BME280;27286;47.870;19.006;2023-02-13T05:23:13;101340.72;;;-6.00;100.00
41573;BME280;27286;47.870;19.006;2023-02-13T05:25:48;101335.97;;;-5.94;100.00
41573;BME280;27286;47.870;19.006;2023-02-13T05:28:13;101334.50;;;-5.89;100.00
41573;BME280;27286;47.870;19.006;2023-02-13T05:30:58;101336.28;;;-5.88;100.00
41573;BME280;27286;47.870;19.006;2023-02-13T05:33:23;101327.66;;;-5.91;100.00
41573;BME280;27286;47.870;19.006;2023-02-13T05:35:49;101333.50;;;-5.92;100.00
41573;BME280;27286;47.870;19.006;2023-02-13T05:38:15;101328.56;;;-5.89;100.00
41573;BME280;27286;47.870;19.006;2023-02-13T05:40:41;101338.72;;;-5.89;100.00
41573;BME280;27286;47.870;19.006;2023-02-13T05:43:06;101347.19;;;-5.89;100.00
41573;BME280;27286;47.870;19.006;2023-02-13T05:45:31;101348.00;;;-5.90;100.00
41573;BME280;27286;47.870;19.006;2023-02-13T05:47:57;101354.66;;;-5.92;100.00
41573;BME280;27286;47.870;19.006;2023-02-13T05:50:22;101353.94;;;-5.89;100.00
41573;BME280;27286;47.870;19.006;2023-02-13T05:52:48;101352.25;;;-5.89;100.00
41573;BME280;27286;47.870;19.006;2023-02-13T05:55:13;101359.19;;;-5.86;100.00
41573;BME280;27286;47.870;19.006;2023-02-13T05:57:38;101354.13;;;-5.86;100.00
41573;BME280;27286;47.870;19.006;2023-02-13T06:00:05;101354.38;;;-5.82;100.00
41573;BME280;27286;47.870;19.006;2023-02-13T06:02:30;101356.56;;;-5.88;100.00
41573;BME280;27286;47.870;19.006;2023-02-13T06:04:56;101363.00;;;-5.94;100.00
41573;BME280;27286;47.870;19.006;2023-02-13T06:07:21;101367.03;;;-5.98;100.00
41573;BME280;27286;47.870;19.006;2023-02-13T06:09:47;101361.25;;;-5.95;100.00
41573;BME280;27286;47.870;19.006;2023-02-13T06:12:12;101358.06;;;-5.91;100.00
41573;BME280;27286;47.870;19.006;2023-02-13T06:14:37;101367.75;;;-5.84;100.00
41573;BME280;27286;47.870;19.006;2023-02-13T06:17:03;101367.91;;;-5.81;100.00
41573;BME280;27286;47.870;19.006;2023-02-13T06:19:28;101371.41;;;-5.79;100.00
41573;BME280;27286;47.870;19.006;2023-02-13T06:21:54;101380.06;;;-5.76;100.00
41573;BME280;27286;47.870;19.006;2023-02-13T06:24:19;101375.53;;;-5.81;100.00
41573;BME280;27286;47.870;19.006;2023-02-13T06:26:45;101367.69;;;-5.86;100.00
41573;BME280;27286;47.870;19.006;2023-02-13T06:29:10;101386.28;;;-5.70;100.00
41573;BME280;27286;47.870;19.006;2023-02-13T06:31:37;101385.03;;;-5.62;100.00
41573;BME280;27286;47.870;19.006;2023-02-13T06:34:03;101376.84;;;-5.57;100.00
41573;BME280;27286;47.870;19.006;2023-02-13T06:36:29;101377.22;;;-5.51;100.00
41573;BME280;27286;47.870;19.006;2023-02-13T06:38:54;101372.44;;;-5.45;100.00
41573;BME280;27286;47.870;19.006;2023-02-13T06:41:19;101371.28;;;-5.35;100.00
41573;BME280;27286;47.870;19.006;2023-02-13T06:43:46;101371.69;;;-5.27;100.00
41573;BME280;27286;47.870;19.006;2023-02-13T06:46:12;101375.69;;;-5.16;100.00
41573;BME280;27286;47.870;19.006;2023-02-13T06:48:37;101369.59;;;-5.03;100.00
41573;BME280;27286;47.870;19.006;2023-02-13T06:51:03;101372.66;;;-4.93;100.00
41573;BME280;27286;47.870;19.006;2023-02-13T06:53:29;101370.84;;;-4.79;99.98
41573;BME280;27286;47.870;19.006;2023-02-13T06:55:55;101375.69;;;-4.67;99.68
41573;BME280;27286;47.870;19.006;2023-02-13T06:58:22;101384.69;;;-4.56;99.17
41573;BME280;27286;47.870;19.006;2023-02-13T07:00:49;101383.59;;;-4.45;98.95
41573;BME280;27286;47.870;19.006;2023-02-13T07:03:15;101384.94;;;-4.35;98.73
41573;BME280;27286;47.870;19.006;2023-02-13T07:05:41;101384.78;;;-4.20;98.78
41573;BME280;27286;47.870;19.006;2023-02-13T07:08:11;101391.94;;;-3.96;98.38
41573;BME280;27286;47.870;19.006;2023-02-13T07:10:38;101390.81;;;-3.67;97.87
41573;BME280;27286;47.870;19.006;2023-02-13T07:13:04;101385.22;;;-3.40;97.73
41573;BME280;27286;47.870;19.006;2023-02-13T07:15:30;101382.94;;;-3.16;96.36
41573;BME280;27286;47.870;19.006;2023-02-13T07:17:57;101384.91;;;-2.91;96.42
41573;BME280;27286;47.870;19.006;2023-02-13T07:20:23;101381.81;;;-2.65;94.92
41573;BME280;27286;47.870;19.006;2023-02-13T07:22:49;101382.84;;;-2.40;94.19
41573;BME280;27286;47.870;19.006;2023-02-13T07:25:14;101383.06;;;-2.15;93.16
41573;BME280;27286;47.870;19.006;2023-02-13T07:27:40;101376.22;;;-1.95;92.15
41573;BME280;27286;47.870;19.006;2023-02-13T07:30:06;101383.28;;;-1.67;90.53
41573;BME280;27286;47.870;19.006;2023-02-13T07:32:31;101377.19;;;-1.26;88.75
41573;BME280;27286;47.870;19.006;2023-02-13T07:34:57;101370.69;;;-0.70;86.39
41573;BME280;27286;47.870;19.006;2023-02-13T07:37:22;101373.56;;;-0.12;84.82
41573;BME280;27286;47.870;19.006;2023-02-13T07:39:48;101377.34;;;0.26;82.15
41573;BME280;27286;47.870;19.006;2023-02-13T07:42:13;101367.22;;;0.58;78.61
41573;BME280;27286;47.870;19.006;2023-02-13T07:44:39;101379.41;;;0.95;78.04
41573;BME280;27286;47.870;19.006;2023-02-13T07:47:04;101373.00;;;1.41;76.34
41573;BME280;27286;47.870;19.006;2023-02-13T07:49:29;101381.28;;;1.97;75.32
41573;BME280;27286;47.870;19.006;2023-02-13T07:51:56;101376.78;;;2.60;73.26
41573;BME280;27286;47.870;19.006;2023-02-13T07:54:22;101378.84;;;4.14;69.96
41573;BME280;27286;47.870;19.006;2023-02-13T07:56:48;101363.00;;;8.33;54.54
41573;BME280;27286;47.870;19.006;2023-02-13T07:59:14;101359.94;;;10.62;46.13
41573;BME280;27286;47.870;19.006;2023-02-13T08:01:39;101359.56;;;12.16;40.99
41573;BME280;27286;47.870;19.006;2023-02-13T08:04:04;101366.16;;;13.26;38.02
41573;BME280;27286;47.870;19.006;2023-02-13T08:06:30;101359.63;;;14.18;36.33
41573;BME280;27286;47.870;19.006;2023-02-13T08:08:55;101351.97;;;15.07;34.61
41573;BME280;27286;47.870;19.006;2023-02-13T08:11:39;101350.09;;;15.95;32.44
41573;BME280;27286;47.870;19.006;2023-02-13T08:14:21;101352.50;;;16.28;30.66
41573;BME280;27286;47.870;19.006;2023-02-13T08:16:47;101339.94;;;16.61;30.37
41573;BME280;27286;47.870;19.006;2023-02-13T08:19:13;101338.16;;;17.33;29.60
41573;BME280;27286;47.870;19.006;2023-02-13T08:21:38;101338.88;;;18.23;28.00
41573;BME280;27286;47.870;19.006;2023-02-13T08:24:05;101340.41;;;18.69;27.74
41573;BME280;27286;47.870;19.006;2023-02-13T08:26:31;101341.53;;;19.03;25.64
41573;BME280;27286;47.870;19.006;2023-02-13T08:28:57;101343.06;;;19.44;25.09
41573;BME280;27286;47.870;19.006;2023-02-13T08:31:22;101339.06;;;19.73;25.01
41573;BME280;27286;47.870;19.006;2023-02-13T08:33:48;101331.06;;;20.09;25.37
41573;BME280;27286;47.870;19.006;2023-02-13T08:36:14;101325.19;;;20.72;24.43
41573;BME280;27286;47.870;19.006;2023-02-13T08:38:39;101321.44;;;20.76;24.08
41573;BME280;27286;47.870;19.006;2023-02-13T08:41:05;101322.53;;;21.21;22.90
41573;BME280;27286;47.870;19.006;2023-02-13T08:43:30;101318.25;;;21.02;23.92
41573;BME280;27286;47.870;19.006;2023-02-13T08:45:59;101326.28;;;21.17;24.40
41573;BME280;27286;47.870;19.006;2023-02-13T08:48:25;101320.50;;;21.26;22.52
41573;BME280;27286;47.870;19.006;2023-02-13T08:50:51;101314.84;;;21.32;23.35
41573;BME280;27286;47.870;19.006;2023-02-13T08:53:16;101327.38;;;21.13;23.91
41573;BME280;27286;47.870;19.006;2023-02-13T08:55:42;101322.34;;;21.08;24.44
41573;BME280;27286;47.870;19.006;2023-02-13T08:58:07;101311.66;;;21.10;23.58
41573;BME280;27286;47.870;19.006;2023-02-13T09:00:33;101318.78;;;21.56;23.51
41573;BME280;27286;47.870;19.006;2023-02-13T09:03:01;101318.09;;;21.69;22.58
41573;BME280;27286;47.870;19.006;2023-02-13T09:05:28;101314.06;;;22.07;21.84
41573;BME280;27286;47.870;19.006;2023-02-13T09:07:58;101313.03;;;21.94;21.52
41573;BME280;27286;47.870;19.006;2023-02-13T09:10:24;101315.13;;;19.94;23.33
41573;BME280;27286;47.870;19.006;2023-02-13T09:12:53;101314.28;;;19.93;23.79
41573;BME280;27286;47.870;19.006;2023-02-13T09:15:19;101320.53;;;20.93;22.59
41573;BME280;27286;47.870;19.006;2023-02-13T09:17:44;101322.13;;;20.47;23.08
41573;BME280;27286;47.870;19.006;2023-02-13T09:20:10;101324.69;;;20.81;22.44
41573;BME280;27286;47.870;19.006;2023-02-13T09:22:41;101324.34;;;20.71;22.65
41573;BME280;27286;47.870;19.006;2023-02-13T09:25:07;101314.31;;;20.61;23.56
41573;BME280;27286;47.870;19.006;2023-02-13T09:27:33;101327.91;;;20.20;23.34
41573;BME280;27286;47.870;19.006;2023-02-13T09:30:00;101328.53;;;20.76;22.78
41573;BME280;27286;47.870;19.006;2023-02-13T09:32:26;101324.84;;;21.58;22.71
41573;BME280;27286;47.870;19.006;2023-02-13T09:34:51;101320.91;;;21.96;21.90
41573;BME280;27286;47.870;19.006;2023-02-13T09:37:17;101318.78;;;22.75;20.88
41573;BME280;27286;47.870;19.006;2023-02-13T09:39:43;101321.88;;;21.79;22.58
41573;BME280;27286;47.870;19.006;2023-02-13T09:42:18;101335.81;;;19.12;24.32
41573;BME280;27286;47.870;19.006;2023-02-13T09:44:45;101326.47;;;19.78;24.03
41573;BME280;27286;47.870;19.006;2023-02-13T09:47:31;101333.38;;;19.26;25.11
41573;BME280;27286;47.870;19.006;2023-02-13T09:52:32;101320.63;;;21.70;22.39
41573;BME280;27286;47.870;19.006;2023-02-13T09:55:00;101324.75;;;22.36;21.97
41573;BME280;27286;47.870;19.006;2023-02-13T09:57:33;101317.28;;;22.71;21.66
41573;BME280;27286;47.870;19.006;2023-02-13T10:00:17;101318.50;;;23.08;21.32
41573;BME280;27286;47.870;19.006;2023-02-13T10:08:37;101308.91;;;22.63;20.93
41573;BME280;27286;47.870;19.006;2023-02-13T10:14:09;101303.38;;;23.50;20.24
41573;BME280;27286;47.870;19.006;2023-02-13T10:16:57;101297.13;;;23.78;20.33
41573;BME280;27286;47.870;19.006;2023-02-13T10:19:36;101286.31;;;24.82;19.20
41573;BME280;27286;47.870;19.006;2023-02-13T10:22:18;101287.72;;;24.24;19.92
41573;BME280;27286;47.870;19.006;2023-02-13T10:24:57;101282.28;;;24.26;19.40
41573;BME280;27286;47.870;19.006;2023-02-13T10:27:31;101283.44;;;23.96;19.55
41573;BME280;27286;47.870;19.006;2023-02-13T10:30:13;101279.13;;;24.46;18.94
41573;BME280;27286;47.870;19.006;2023-02-13T10:38:23;101269.06;;;23.05;20.61
41573;BME280;27286;47.870;19.006;2023-02-13T10:44:18;101262.09;;;22.90;21.41
41573;BME280;27286;47.870;19.006;2023-02-13T10:47:14;101258.22;;;22.53;20.83
41573;BME280;27286;47.870;19.006;2023-02-13T11:03:00;101242.88;;;22.00;21.76
41573;BME280;27286;47.870;19.006;2023-02-13T11:05:32;101231.06;;;22.62;21.73
41573;BME280;27286;47.870;19.006;2023-02-13T11:07:58;101227.56;;;22.33;22.48
41573;BME280;27286;47.870;19.006;2023-02-13T11:10:26;101232.22;;;22.44;21.43
41573;BME280;27286;47.870;19.006;2023-02-13T11:12:52;101218.75;;;22.61;22.39
41573;BME280;27286;47.870;19.006;2023-02-13T11:17:54;101223.63;;;21.96;21.83
41573;BME280;27286;47.870;19.006;2023-02-13T11:23:32;101209.84;;;22.62;21.94
41573;BME280;27286;47.870;19.006;2023-02-13T11:28:28;101201.72;;;23.46;20.70
41573;BME280;27286;47.870;19.006;2023-02-13T11:31:09;101201.59;;;21.51;22.78
41573;BME280;27286;47.870;19.006;2023-02-13T11:33:35;101195.91;;;21.12;23.35
41573;BME280;27286;47.870;19.006;2023-02-13T11:36:46;101196.75;;;21.12;23.41
41573;BME280;27286;47.870;19.006;2023-02-13T11:39:19;101190.66;;;21.72;22.34
41573;BME280;27286;47.870;19.006;2023-02-13T11:41:46;101195.47;;;21.65;22.84
41573;BME280;27286;47.870;19.006;2023-02-13T11:44:27;101191.97;;;22.37;22.73
41573;BME280;27286;47.870;19.006;2023-02-13T11:46:56;101190.78;;;23.38;21.32
41573;BME280;27286;47.870;19.006;2023-02-13T11:49:25;101189.13;;;22.40;22.01
41573;BME280;27286;47.870;19.006;2023-02-13T11:51:53;101190.56;;;20.66;25.05
41573;BME280;27286;47.870;19.006;2023-02-13T11:59:46;101189.63;;;21.74;23.48
41573;BME280;27286;47.870;19.006;2023-02-13T12:02:31;101178.25;;;20.65;25.64
41573;BME280;27286;47.870;19.006;2023-02-13T12:05:14;101171.56;;;21.21;24.67
41573;BME280;27286;47.870;19.006;2023-02-13T12:07:41;101165.44;;;21.50;23.80
41573;BME280;27286;47.870;19.006;2023-02-13T12:20:21;101148.09;;;19.52;26.67
41573;BME280;27286;47.870;19.006;2023-02-13T12:23:08;101148.59;;;19.94;26.42
41573;BME280;27286;47.870;19.006;2023-02-13T12:33:36;101125.50;;;19.64;26.56
41573;BME280;27286;47.870;19.006;2023-02-13T12:41:41;101127.72;;;20.38;26.08
41573;BME280;27286;47.870;19.006;2023-02-13T12:49:48;101117.13;;;20.22;25.99
41573;BME280;27286;47.870;19.006;2023-02-13T12:52:38;101114.41;;;20.39;25.97
41573;BME280;27286;47.870;19.006;2023-02-13T12:55:36;101113.56;;;20.86;25.51
41573;BME280;27286;47.870;19.006;2023-02-13T13:06:12;101117.97;;;21.01;25.99
41573;BME280;27286;47.870;19.006;2023-02-13T13:12:01;101122.75;;;14.56;34.82
41573;BME280;27286;47.870;19.006;2023-02-13T13:22:58;101123.22;;;12.38;40.66
41573;BME280;27286;47.870;19.006;2023-02-13T13:28:03;101106.25;;;16.75;31.88
41573;BME280;27286;47.870;19.006;2023-02-13T13:30:33;101127.19;;;16.78;32.20
41573;BME280;27286;47.870;19.006;2023-02-13T13:33:04;101124.56;;;16.55;32.60
41573;BME280;27286;47.870;19.006;2023-02-13T13:35:34;101110.25;;;16.62;32.60
41573;BME280;27286;47.870;19.006;2023-02-13T13:38:24;101117.69;;;15.06;34.88
41573;BME280;27286;47.870;19.006;2023-02-13T13:41:04;101122.97;;;13.57;37.37
41573;BME280;27286;47.870;19.006;2023-02-13T13:51:36;101120.75;;;11.41;43.61
41573;BME280;27286;47.870;19.006;2023-02-13T14:07:33;101123.16;;;10.47;47.53
41573;BME280;27286;47.870;19.006;2023-02-13T14:09:59;101132.94;;;10.30;47.55
41573;BME280;27286;47.870;19.006;2023-02-13T14:14:57;101131.69;;;9.86;48.88
41573;BME280;27286;47.870;19.006;2023-02-13T14:22:45;101139.13;;;9.35;51.95
41573;BME280;27286;47.870;19.006;2023-02-13T14:25:24;101138.50;;;9.12;52.70
41573;BME280;27286;47.870;19.006;2023-02-13T14:28:03;101130.00;;;8.91;53.07
41573;BME280;27286;47.870;19.006;2023-02-13T14:30:34;101132.69;;;8.78;53.69
41573;BME280;27286;47.870;19.006;2023-02-13T14:33:04;101135.38;;;8.61;54.56
41573;BME280;27286;47.870;19.006;2023-02-13T14:35:33;101130.28;;;8.44;55.11
41573;BME280;27286;47.870;19.006;2023-02-13T14:38:06;101125.16;;;8.27;55.98
41573;BME280;27286;47.870;19.006;2023-02-13T14:46:05;101131.34;;;7.94;57.92
41573;BME280;27286;47.870;19.006;2023-02-13T14:48:36;101140.88;;;7.81;58.29
41573;BME280;27286;47.870;19.006;2023-02-13T14:51:04;101129.69;;;7.69;58.34
41573;BME280;27286;47.870;19.006;2023-02-13T14:53:51;101124.53;;;7.61;59.35
41573;BME280;27286;47.870;19.006;2023-02-13T14:56:20;101127.13;;;7.49;59.71
41573;BME280;27286;47.870;19.006;2023-02-13T14:58:51;101123.72;;;7.41;59.89
41573;BME280;27286;47.870;19.006;2023-02-13T15:01:44;101135.81;;;7.30;60.06
41573;BME280;27286;47.870;19.006;2023-02-13T15:06:49;101144.44;;;7.09;61.56
41573;BME280;27286;47.870;19.006;2023-02-13T15:11:45;101136.69;;;6.89;62.28
41573;BME280;27286;47.870;19.006;2023-02-13T15:14:26;101150.47;;;6.80;62.65
41573;BME280;27286;47.870;19.006;2023-02-13T15:16:58;101140.06;;;6.57;63.09
41573;BME280;27286;47.870;19.006;2023-02-13T15:19:26;101150.41;;;6.56;63.91
41573;BME280;27286;47.870;19.006;2023-02-13T15:21:58;101153.84;;;6.47;64.27
41573;BME280;27286;47.870;19.006;2023-02-13T15:24:25;101152.09;;;6.39;64.47
41573;BME280;27286;47.870;19.006;2023-02-13T15:27:02;101141.72;;;6.37;64.71
41573;BME280;27286;47.870;19.006;2023-02-13T15:29:29;101139.97;;;6.31;64.78
41573;BME280;27286;47.870;19.006;2023-02-13T15:31:56;101144.25;;;6.16;65.18
41573;BME280;27286;47.870;19.006;2023-02-13T15:34:29;101146.75;;;6.00;65.44
41573;BME280;27286;47.870;19.006;2023-02-13T15:36:56;101135.41;;;5.79;65.73
41573;BME280;27286;47.870;19.006;2023-02-13T15:39:25;101137.06;;;5.66;66.52